AirNav   Pilot Hours Calculator
 
 661 users online  

E70 Huber Airpark Civic Club LLC Airport
Seguin, Texas, USA

GOING TO SEGUIN?


FAA INFORMATION EFFECTIVE 05 DECEMBER 2019

Location

FAA Identifier: E70
Lat/Long: 29-36-08.6625N 097-59-26.0270W
29-36.144375N 097-59.433783W
29.6024063,-97.9905631
(estimated)
Elevation: 556 ft. / 169 m (estimated)
Variation: 06E (1995)
From city: 20 miles N of SEGUIN, TX
Time zone: UTC -6 (UTC -5 during Daylight Saving Time)
Zip code: 78155

Airport Operations

Airport use: Open to the public
Activation date: 06/2000
Control tower: no
ARTCC: HOUSTON CENTER
FSS: SAN ANGELO FLIGHT SERVICE STATION
NOTAMs facility: SJT (NOTAM-D service available)
Attendance: MON-FRI 0800-1700
Wind indicator: yes
Segmented circle: no
Lights: SS-SR
Beacon: Operates sunset to sunrise.

Airport Communications

CTAF: 122.9
WX ASOS at BAZ (7 nm NW): 119.325 (830-629-7979)
WX AWOS-3PT at HYI (19 nm N): PHONE 512-353-8005

Nearby radio navigation aids

VOR radial/distance  VOR name  Freq  Var
RNDr067/16.2RANDOLPH VORTAC112.3005E
SATr088/24.7SAN ANTONIO VORTAC116.8008E
SSFr040/(31.4)STINSON VOR108.4009E

Airport Services

Fuel available: 100LL
FUEL ASSISTED SELF-SERVE.

Runway Information

Runway 16/34

Dimensions: 3415 x 50 ft. / 1041 x 15 m
Surface: asphalt, in fair condition
Runway edge lights: low intensity
ONLY CENTER 3285 LGTD.
Runway edge markings: NRS 40 FT TALL; STD CNTRLN.
Operational restrictions: RY MAGNETIC BEARING 174/354.
RUNWAY 16  RUNWAY 34
Latitude: 29-36.426083N29-35.862667N
Longitude: 097-59.437967W097-59.429600W
Traffic pattern: leftleft
Markings: NSTD, in good conditionNSTD, in good condition
Obstructions: 39 ft. tree, 364 ft. from runway, 141 ft. right of centerline, 4:1 slope to clear
+5 FT FENCE 55 FT FM THLD ACROSS APCH, +16 FT ROAD 100 FT FM THLD ACROSS APCH.
none
+7 FT BRUSH (CROPS) FM 10-200 FT FM THLD ACROSS APCH- SEASONAL.

Airport Ownership and Management from official FAA records

Ownership: Privately-owned
Owner: HUBER AIRPARK
2475 RUDELOFF RD
SEGUIN, TX 78155
Phone 830-379-9800
Manager: DERRICK SMITH
2475 RUDELOFF RD
SEGUIN, TX 78155
Phone 830-379-9800
OR 619-228-5885 MGR CELL.

Airport Operational Statistics

Aircraft based on the field: 43
Single engine airplanes: 25
Multi engine airplanes: 5
Jet airplanes: 3
Helicopters: 5
Ultralights: 5
    
Aircraft operations: avg 96/week *
80% local general aviation
20% transient general aviation
* for 12-month period ending 13 April 2017

Additional Remarks

FOR CD CTC SAN ANTONIO APCH AT 210-805-5516.

Instrument Procedures

There are no published instrument procedures at E70.

Some nearby airports with instrument procedures:

KBAZ - New Braunfels Regional Airport (7 nm NW)
KRND - Randolph Air Force Base (16 nm W)
KHYI - San Marcos Regional Airport (19 nm N)
50R - Lockhart Municipal Airport (22 nm NE)
KSAT - San Antonio International Airport (25 nm W)
 
Loc | Ops | Rwys | IFR | FBO | Links
Com | Nav | Svcs | Stats | Notes
Area around E70 (Huber Airpark Civic Club LLC Airport)
 
Road maps at: MapQuest Bing Google
 
Aerial photo
WARNING: Photo may not be current or correct
Aerial photo of E70 (Huber Airpark Civic Club LLC Airport)
Photo by Kim Demore of Veracity Aviation
Photo taken 15-May-2013
looking northwest.

Do you have a better or more recent aerial photo of Huber Airpark Civic Club LLC Airport that you would like to share? If so, please send us your photo.

 
Sectional chart

 
Airport distance calculator
Flying to Huber Airpark Civic Club LLC Airport? Find the distance to fly.

From to E70

Sunrise and sunset
Times for 15-Dec-2019
 Local
(UTC-6)
 Zulu
(UTC)
Morning civil twilight06:5412:54
Sunrise07:2013:20
Sunset17:3423:34
Evening civil twilight18:0000:00

Current date and time
Zulu (UTC)  16-Dec-2019 03:52:25
Local (UTC-6)  15-Dec-2019 21:52:25
 
METAR
KSEQ 
5nm SE 
160258Z AUTO 14009KT 10SM CLR 20/18 A2978 RMK AO2 SLP083 T01950184 51007
KBAZ 
8nm NW 
160251Z AUTO 15007KT 10SM CLR 19/18 A2974 RMK AO2 SLP065 T01940178 51007
KRND 
15nm W 
160256Z AUTO 12003KT 10SM CLR 19/18 A2975 RMK AO2 SLP072 T01900177 52009
KHYI 
18nm N 
160342Z AUTO 19003KT 8SM SCT009 18/18 A2977 RMK AO2
TAF
KRND 
15nm W 
152231Z 1522/1624 18006KT 9999 SKC QNH2968INS BECMG 1605/1606 16006KT 3200 BR BKN006 QNH2976INS BECMG 1609/1610 VRB05KT 0800 FG VV002 QNH2978INS BECMG 1613/1614 34009KT 4800 BR BKN010 QNH2983INS BECMG 1614/1615 36015G25KT 9999 NSW SCT025 QNH2989INS TX19/1621Z TN13/1612Z LAST NO AMDS AFT 1524 NEXT 1610
NOTAMs
Click for the latest NOTAMs
NOTAMs are issued by the DoD/FAA and will open in a separate window not controlled by AirNav.

 

 
 

FBO, Fuel Providers, and Aircraft Ground Support

  
 Business Name 
 
 Contact 
 
 Services / Description 
 
Fuel Prices
 
Comments
  
 Veracity Aviation
830-379-9800
[web site]
[email]
LOWEST RATE! *100LL Fuel, *self-serve, *Flight training, *Aircraft rental, *T-Hangar rentals, *Aerial tours/ *Aerial sightseeing, *Aerial photography, *Aircraft parts, *Pilots lounge.**FRIENDLY STAFF**

More info about Veracity Aviation
independent
100LL
FS $4.75 
SS $4.25 
 Updated 13-Dec-2019
 
   write
 SVT Aviation Maintenance, LLC
210-744-8631
[web site]
[email]

Like us on facebook
Aviation fuel, Aircraft maintenance, Aircraft modifications, Aircraft painting, Aircraft cleaning / washing / detailing, Aircraft parts

More info about SVT Aviation Maintenance, LLC
Phillips 66
100LL Jet A
FS $4.45 $4.39 
 Updated 05-Dec-2019
 
   write
FS=Full service
SS=Self service
Update Fuel Prices
 

Would you like to see your business listed on this page?

 If your business provides an interesting product or service to pilots, flight crews, aircraft, or users of the Huber Airpark Civic Club LLC Airport, you should consider listing it here.  To start the listing process, click on the button below
 
Add a business
 

Other Pages about Huber Airpark Civic Club LLC Airport

Update a link
 
Copyright © AirNav, LLC. All rights reserved. Privacy Policy  Contact